createdAt,value
2023-01-19T00:01:47.010Z,0.60
2023-01-19T00:04:16.237Z,0.60
2023-01-19T00:06:45.255Z,0.60
2023-01-19T00:09:14.334Z,0.60
2023-01-19T00:11:43.367Z,0.60
2023-01-19T00:14:13.972Z,0.60
2023-01-19T00:16:43.356Z,0.50
2023-01-19T00:19:12.363Z,0.50
2023-01-19T00:21:41.583Z,0.50
2023-01-19T00:24:14.017Z,0.50
2023-01-19T00:26:43.388Z,0.60
2023-01-19T00:29:15.781Z,0.60
2023-01-19T00:31:45.275Z,0.60
2023-01-19T00:34:14.514Z,0.60
2023-01-19T00:36:43.933Z,0.40
2023-01-19T00:39:13.009Z,0.50
2023-01-19T00:42:04.517Z,0.40
2023-01-19T00:44:35.439Z,0.50
2023-01-19T00:47:05.990Z,0.60
2023-01-19T00:49:35.310Z,0.70
2023-01-19T00:52:04.271Z,0.70
2023-01-19T00:54:33.280Z,0.70
2023-01-19T00:57:03.678Z,0.70
2023-01-19T00:59:33.207Z,0.60
2023-01-19T01:02:03.684Z,0.60
2023-01-19T01:04:33.201Z,0.70
2023-01-19T01:07:02.317Z,0.70
2023-01-19T01:09:32.032Z,0.70
2023-01-19T01:12:01.378Z,0.70
2023-01-19T01:14:30.782Z,0.80
2023-01-19T01:17:00.912Z,0.70
2023-01-19T01:19:31.853Z,0.70
2023-01-19T01:22:01.869Z,0.80
2023-01-19T01:24:31.011Z,0.90
2023-01-19T01:27:00.410Z,0.80
2023-01-19T01:29:29.413Z,0.90
2023-01-19T01:31:58.685Z,0.90
2023-01-19T01:34:28.001Z,0.90
2023-01-19T01:36:58.603Z,0.90
2023-01-19T01:39:28.124Z,0.90
2023-01-19T01:41:57.607Z,0.80
2023-01-19T01:44:53.719Z,0.70
2023-01-19T01:47:34.602Z,0.60
2023-01-19T01:50:10.850Z,0.40
2023-01-19T01:52:44.633Z,0.60
2023-01-19T01:55:36.829Z,0.60
2023-01-19T01:58:07.392Z,0.80
2023-01-19T02:00:50.698Z,0.80
2023-01-19T02:03:20.343Z,0.90
2023-01-19T02:05:50.269Z,1.00
2023-01-19T02:08:43.884Z,0.90
2023-01-19T02:11:30.409Z,0.90
2023-01-19T02:14:00.264Z,1.00
2023-01-19T02:16:30.340Z,0.90
2023-01-19T02:19:01.309Z,1.00
2023-01-19T02:21:38.083Z,1.00
2023-01-19T02:24:09.956Z,1.00
2023-01-19T02:26:42.454Z,1.00
2023-01-19T02:29:13.779Z,1.00
2023-01-19T02:31:43.668Z,1.00
2023-01-19T02:34:15.609Z,1.00
2023-01-19T02:36:50.586Z,1.00
2023-01-19T02:39:24.532Z,0.80
2023-01-19T02:41:59.274Z,0.80
2023-01-19T02:44:29.299Z,0.70
2023-01-19T02:46:59.094Z,0.90
2023-01-19T02:49:30.435Z,1.00
2023-01-19T02:52:04.349Z,1.00
2023-01-19T02:54:48.536Z,1.00
2023-01-19T02:57:49.160Z,0.80
2023-01-19T03:00:34.206Z,0.80
2023-01-19T03:03:16.988Z,0.80
2023-01-19T03:05:57.285Z,0.90
2023-01-19T03:08:44.173Z,0.90
2023-01-19T03:11:16.334Z,0.90
2023-01-19T03:13:51.146Z,0.90
2023-01-19T03:16:23.276Z,1.00
2023-01-19T03:18:57.439Z,1.00
2023-01-19T03:21:29.550Z,0.90
2023-01-19T03:24:02.517Z,0.90
2023-01-19T03:26:39.096Z,0.90
2023-01-19T03:29:10.167Z,0.90
2023-01-19T03:31:42.303Z,1.00
2023-01-19T03:34:14.904Z,0.90
2023-01-19T03:36:47.392Z,0.90
2023-01-19T03:39:20.740Z,0.90
2023-01-19T03:41:56.517Z,1.00
2023-01-19T03:44:28.507Z,0.90
2023-01-19T03:47:00.099Z,1.00
2023-01-19T03:49:32.047Z,1.00
2023-01-19T03:52:01.701Z,1.10
2023-01-19T03:54:31.365Z,0.90
2023-01-19T03:57:01.866Z,1.00
2023-01-19T03:59:31.308Z,1.00
2023-01-19T04:02:00.546Z,1.00
2023-01-19T04:04:29.913Z,0.80
2023-01-19T04:06:59.511Z,0.90
2023-01-19T04:09:29.659Z,0.90
2023-01-19T04:11:58.789Z,0.90
2023-01-19T04:14:30.675Z,0.90
2023-01-19T04:16:59.958Z,1.00
2023-01-19T04:19:29.035Z,0.80
2023-01-19T04:21:58.143Z,0.90
2023-01-19T04:24:27.982Z,0.90
2023-01-19T04:26:57.578Z,0.90
2023-01-19T04:29:26.626Z,1.00
2023-01-19T04:31:58.063Z,1.00
2023-01-19T04:34:27.196Z,1.00
2023-01-19T04:36:57.529Z,0.90
2023-01-19T04:39:26.690Z,0.70
2023-01-19T04:41:57.629Z,0.90
2023-01-19T04:44:27.828Z,0.80
2023-01-19T04:46:58.850Z,0.50
2023-01-19T04:49:27.890Z,0.60
2023-01-19T04:51:57.035Z,0.70
2023-01-19T04:54:27.964Z,0.70
2023-01-19T04:56:57.415Z,0.70
2023-01-19T04:59:26.515Z,0.70
2023-01-19T05:01:56.734Z,0.70
2023-01-19T05:04:27.195Z,0.70
2023-01-19T05:06:56.676Z,0.70
2023-01-19T05:09:26.280Z,0.70
2023-01-19T05:11:55.244Z,0.80
2023-01-19T05:14:24.610Z,0.80
2023-01-19T05:16:53.925Z,0.80
2023-01-19T05:19:23.438Z,0.60
2023-01-19T05:21:54.910Z,0.70
2023-01-19T05:24:24.353Z,0.60
2023-01-19T05:26:54.960Z,0.70
2023-01-19T05:29:24.463Z,0.40
2023-01-19T05:31:53.926Z,0.50
2023-01-19T05:34:23.495Z,0.50
2023-01-19T05:36:54.723Z,0.60
2023-01-19T05:39:23.830Z,0.60
2023-01-19T05:41:52.903Z,0.60
2023-01-19T05:44:22.421Z,0.60
2023-01-19T05:46:51.905Z,0.70
2023-01-19T05:49:21.009Z,0.60
2023-01-19T05:51:49.906Z,0.60
2023-01-19T05:54:20.656Z,0.50
2023-01-19T05:56:50.027Z,0.50
2023-01-19T05:59:24.520Z,0.50
2023-01-19T06:01:55.129Z,0.50
2023-01-19T06:04:25.775Z,0.60
2023-01-19T06:06:54.784Z,0.50
2023-01-19T06:09:25.456Z,0.60
2023-01-19T06:11:56.963Z,0.60
2023-01-19T06:14:26.669Z,0.70
2023-01-19T06:16:56.268Z,0.60
2023-01-19T06:19:25.901Z,0.40
2023-01-19T06:21:55.158Z,0.50
2023-01-19T06:24:26.377Z,0.40
2023-01-19T06:26:55.776Z,0.50
2023-01-19T06:29:26.083Z,0.40
2023-01-19T06:31:56.783Z,0.60
2023-01-19T06:34:28.996Z,0.70
2023-01-19T06:36:58.923Z,0.60
2023-01-19T06:39:30.287Z,0.50
2023-01-19T06:41:59.883Z,0.60
2023-01-19T06:44:29.548Z,0.60
2023-01-19T06:47:15.852Z,0.70
2023-01-19T06:49:45.299Z,0.70
2023-01-19T06:52:17.220Z,0.70
2023-01-19T06:54:48.434Z,0.60
2023-01-19T06:57:19.167Z,0.70
2023-01-19T06:59:49.595Z,0.60
2023-01-19T07:02:26.336Z,0.60
2023-01-19T07:04:57.135Z,0.60
2023-01-19T07:07:26.369Z,0.50
2023-01-19T07:09:57.234Z,0.40
2023-01-19T07:12:26.577Z,0.50
2023-01-19T07:14:55.859Z,0.60
2023-01-19T07:17:24.994Z,0.50
2023-01-19T07:19:54.838Z,0.40
2023-01-19T07:22:24.306Z,0.50
2023-01-19T07:24:53.624Z,0.60
2023-01-19T07:27:24.479Z,0.70
2023-01-19T07:29:53.657Z,0.60
2023-01-19T07:32:23.767Z,0.60
2023-01-19T07:34:53.078Z,0.40
2023-01-19T07:37:22.891Z,0.50
2023-01-19T07:39:52.047Z,0.60
2023-01-19T07:42:21.399Z,0.70
2023-01-19T07:44:52.036Z,0.70
2023-01-19T07:47:21.764Z,0.60
2023-01-19T07:49:51.049Z,0.70
2023-01-19T07:52:20.369Z,0.50
2023-01-19T07:54:51.209Z,0.60
2023-01-19T07:57:20.868Z,0.50
2023-01-19T07:59:52.011Z,0.60
2023-01-19T08:02:21.730Z,0.60
2023-01-19T08:04:51.075Z,0.60
2023-01-19T08:07:20.822Z,0.70
2023-01-19T08:09:50.597Z,0.80
2023-01-19T08:12:20.202Z,0.60
2023-01-19T08:14:49.174Z,0.80
2023-01-19T08:17:20.279Z,0.90
2023-01-19T08:19:49.556Z,0.90
2023-01-19T08:22:19.268Z,0.80
2023-01-19T08:24:50.354Z,0.90
2023-01-19T08:27:20.071Z,1.00
2023-01-19T08:29:49.105Z,0.60
2023-01-19T08:32:20.422Z,1.00
2023-01-19T08:34:49.964Z,0.90
2023-01-19T08:37:19.171Z,1.00
2023-01-19T08:39:49.095Z,1.10
2023-01-19T08:42:18.862Z,1.20
2023-01-19T08:44:57.487Z,1.20
2023-01-19T08:47:29.023Z,1.20
2023-01-19T08:49:58.433Z,0.90
2023-01-19T08:52:29.691Z,0.80
2023-01-19T08:54:58.968Z,0.90
2023-01-19T08:57:29.508Z,1.00
2023-01-19T08:59:58.856Z,1.20
2023-01-19T09:02:30.527Z,1.20
2023-01-19T09:05:00.502Z,1.10
2023-01-19T09:07:32.441Z,1.20
2023-01-19T09:10:03.073Z,1.10
2023-01-19T09:12:32.658Z,1.20
2023-01-19T09:15:01.845Z,1.00
2023-01-19T09:17:32.306Z,1.30
2023-01-19T09:20:01.119Z,1.40
2023-01-19T09:22:30.927Z,1.50
2023-01-19T09:25:00.652Z,1.60
2023-01-19T09:27:29.893Z,1.80
2023-01-19T09:29:59.010Z,1.70
2023-01-19T09:32:28.441Z,1.60
2023-01-19T09:34:59.443Z,1.50
2023-01-19T09:37:28.649Z,1.80
2023-01-19T09:39:57.887Z,1.70
2023-01-19T09:42:44.012Z,1.70
2023-01-19T09:45:20.388Z,1.60
2023-01-19T09:47:50.968Z,1.60
2023-01-19T09:50:28.287Z,1.60
2023-01-19T09:53:02.553Z,1.70
2023-01-19T09:55:32.884Z,1.50
2023-01-19T09:58:02.829Z,1.60
2023-01-19T10:00:34.101Z,1.90
2023-01-19T10:03:14.159Z,1.80
2023-01-19T10:05:50.756Z,2.00
2023-01-19T10:08:25.153Z,2.10
2023-01-19T10:10:57.049Z,2.30
2023-01-19T10:13:39.677Z,1.90
2023-01-19T10:16:25.195Z,1.80
2023-01-19T10:18:59.191Z,1.70
2023-01-19T10:21:33.791Z,1.80
2023-01-19T10:24:07.886Z,1.70
2023-01-19T10:26:42.423Z,1.80
2023-01-19T10:29:20.321Z,1.80
2023-01-19T10:31:51.050Z,1.90
2023-01-19T10:34:23.565Z,1.80
2023-01-19T10:37:00.678Z,1.70
2023-01-19T10:39:30.566Z,1.80
2023-01-19T10:42:02.155Z,1.80
2023-01-19T10:44:37.985Z,1.80
2023-01-19T10:47:08.625Z,1.90
2023-01-19T10:49:40.793Z,1.90
2023-01-19T10:52:23.787Z,1.70
2023-01-19T10:54:53.000Z,1.90
2023-01-19T10:57:29.968Z,1.90
2023-01-19T10:59:59.963Z,1.70
2023-01-19T11:02:31.786Z,1.80
2023-01-19T11:05:02.564Z,1.60
2023-01-19T11:07:35.402Z,1.40
2023-01-19T11:10:22.302Z,1.60
2023-01-19T11:13:03.222Z,1.70
2023-01-19T11:15:35.579Z,1.40
2023-01-19T11:18:07.211Z,1.30
2023-01-19T11:20:47.937Z,1.30
2023-01-19T11:23:27.721Z,1.50
2023-01-19T11:25:59.699Z,1.60
2023-01-19T11:28:33.291Z,1.40
2023-01-19T11:31:04.553Z,1.50
2023-01-19T11:33:38.551Z,1.50
2023-01-19T11:36:16.038Z,1.50
2023-01-19T11:38:51.019Z,1.50
2023-01-19T11:41:23.337Z,1.60
2023-01-19T11:43:57.128Z,1.40
2023-01-19T11:46:30.694Z,1.40
2023-01-19T11:49:04.603Z,1.50
2023-01-19T11:51:40.492Z,1.40
2023-01-19T11:54:21.263Z,1.40
2023-01-19T11:56:52.852Z,1.40
2023-01-19T11:59:24.837Z,1.30
2023-01-19T12:01:58.394Z,1.30
2023-01-19T12:04:31.684Z,1.40
2023-01-19T12:07:07.281Z,1.30
2023-01-19T12:09:43.545Z,1.20
2023-01-19T12:12:23.363Z,1.20
2023-01-19T12:14:57.232Z,1.10
2023-01-19T12:17:28.704Z,1.20
2023-01-19T12:20:05.170Z,1.30
2023-01-19T12:22:42.810Z,1.30
2023-01-19T12:25:22.412Z,1.30
2023-01-19T12:27:53.181Z,1.40
2023-01-19T12:30:26.391Z,1.40
2023-01-19T12:33:23.740Z,1.50
2023-01-19T12:35:59.911Z,1.30
2023-01-19T12:38:44.397Z,1.50
2023-01-19T12:41:25.486Z,1.30
2023-01-19T12:44:19.577Z,1.20
2023-01-19T12:46:52.032Z,1.20
2023-01-19T12:49:29.480Z,1.10
2023-01-19T12:52:16.360Z,1.10
2023-01-19T12:54:55.008Z,1.00
2023-01-19T12:57:32.586Z,1.00
2023-01-19T13:00:04.167Z,1.00
2023-01-19T13:02:44.666Z,1.00
2023-01-19T13:05:24.661Z,1.00
2023-01-19T13:08:30.384Z,0.90
2023-01-19T13:11:22.492Z,1.00
2023-01-19T13:14:30.900Z,0.90
2023-01-19T13:17:26.536Z,0.80
2023-01-19T13:20:29.635Z,0.70
2023-01-19T13:23:22.233Z,0.70
2023-01-19T13:25:55.092Z,0.80
2023-01-19T13:28:36.967Z,0.90
2023-01-19T13:31:07.593Z,0.90
2023-01-19T13:33:48.150Z,0.90
2023-01-19T13:36:23.159Z,0.60
2023-01-19T13:38:54.577Z,0.70
2023-01-19T13:41:25.612Z,0.70
2023-01-19T13:44:01.446Z,0.90
2023-01-19T13:46:33.999Z,0.70
2023-01-19T13:49:16.239Z,0.80
2023-01-19T13:51:45.705Z,0.90
2023-01-19T13:54:18.332Z,1.00
2023-01-19T13:56:51.812Z,0.90
2023-01-19T13:59:21.568Z,1.00
2023-01-19T14:01:51.566Z,1.00
2023-01-19T14:04:31.749Z,1.00
2023-01-19T14:07:04.644Z,0.90
2023-01-19T14:09:34.112Z,0.90
2023-01-19T14:12:12.978Z,0.90
2023-01-19T14:14:43.362Z,0.80
2023-01-19T14:17:30.908Z,0.90
2023-01-19T14:20:05.274Z,1.10
2023-01-19T14:22:51.302Z,1.00
2023-01-19T14:25:37.417Z,1.00
2023-01-19T14:28:36.835Z,0.90
2023-01-19T14:31:23.962Z,0.70
2023-01-19T14:33:55.688Z,0.70
2023-01-19T14:36:40.465Z,0.50
2023-01-19T14:39:21.240Z,0.60
2023-01-19T14:41:54.787Z,0.50
2023-01-19T14:44:31.256Z,0.50
2023-01-19T14:47:02.861Z,0.70
2023-01-19T14:49:36.146Z,0.70
2023-01-19T14:52:21.551Z,0.70
2023-01-19T14:54:51.810Z,0.70
2023-01-19T14:57:21.543Z,0.60
2023-01-19T14:59:54.480Z,0.60
2023-01-19T15:02:26.970Z,0.40
2023-01-19T15:04:58.372Z,0.60
2023-01-19T15:07:46.024Z,0.60
2023-01-19T15:10:23.738Z,0.70
2023-01-19T15:13:04.495Z,0.60
2023-01-19T15:15:37.149Z,0.60
2023-01-19T15:18:12.697Z,0.60
2023-01-19T15:20:42.576Z,0.50
2023-01-19T15:23:15.196Z,0.50
2023-01-19T15:25:46.424Z,0.50
2023-01-19T15:28:19.728Z,0.50
2023-01-19T15:30:49.603Z,0.50
2023-01-19T15:33:22.456Z,0.40
2023-01-19T15:35:53.497Z,0.50
2023-01-19T15:38:28.108Z,0.50
2023-01-19T15:41:00.892Z,0.60
2023-01-19T15:43:30.661Z,0.60
2023-01-19T15:46:03.356Z,0.60
2023-01-19T15:48:33.833Z,0.60
2023-01-19T15:51:04.375Z,0.60
2023-01-19T15:53:35.775Z,0.60
2023-01-19T15:56:06.862Z,0.40
2023-01-19T15:58:37.015Z,0.50
2023-01-19T16:01:08.195Z,0.60
2023-01-19T16:03:39.276Z,0.50
2023-01-19T16:06:10.888Z,0.60
2023-01-19T16:08:42.234Z,0.50
2023-01-19T16:11:15.285Z,0.50
2023-01-19T16:13:47.242Z,0.40
2023-01-19T16:16:18.467Z,0.50
2023-01-19T16:18:48.312Z,0.40
2023-01-19T16:21:17.684Z,0.50
2023-01-19T16:23:48.479Z,0.60
2023-01-19T16:26:32.652Z,0.50
2023-01-19T16:29:03.199Z,0.40
2023-01-19T16:31:33.469Z,0.30
2023-01-19T16:34:03.084Z,0.20
2023-01-19T16:36:34.598Z,0.30
2023-01-19T16:39:08.438Z,0.30
2023-01-19T16:41:38.309Z,0.40
2023-01-19T16:44:08.583Z,0.40
2023-01-19T16:46:39.022Z,0.30
2023-01-19T16:49:12.689Z,0.50
2023-01-19T16:51:42.349Z,0.60
2023-01-19T16:54:15.191Z,0.50
2023-01-19T16:56:44.590Z,0.40
2023-01-19T16:59:15.857Z,0.50
2023-01-19T17:01:46.473Z,0.60
2023-01-19T17:04:17.268Z,0.60
2023-01-19T17:06:48.424Z,0.50
2023-01-19T17:09:19.741Z,0.60
2023-01-19T17:11:49.491Z,0.70
2023-01-19T17:14:21.872Z,0.70
2023-01-19T17:16:52.177Z,0.60
2023-01-19T17:19:23.995Z,0.60
2023-01-19T17:21:54.005Z,0.60
2023-01-19T17:24:25.815Z,0.30
2023-01-19T17:26:55.244Z,0.30
2023-01-19T17:29:25.464Z,0.50
2023-01-19T17:31:57.323Z,0.60
2023-01-19T17:34:27.633Z,0.70
2023-01-19T17:37:03.337Z,0.60
2023-01-19T17:39:34.735Z,0.60
2023-01-19T17:42:05.079Z,0.60
2023-01-19T17:44:35.399Z,0.60
2023-01-19T17:47:06.387Z,0.60
2023-01-19T17:49:37.665Z,0.60
2023-01-19T17:52:07.453Z,0.60
2023-01-19T17:54:38.889Z,0.70
2023-01-19T17:57:09.013Z,0.60
2023-01-19T17:59:41.427Z,0.60
2023-01-19T18:02:11.946Z,0.60
2023-01-19T18:04:42.178Z,0.50
2023-01-19T18:07:11.964Z,0.50
2023-01-19T18:09:44.043Z,0.40
2023-01-19T18:12:13.658Z,0.40
2023-01-19T18:14:43.789Z,0.30
2023-01-19T18:17:14.064Z,0.40
2023-01-19T18:19:44.037Z,0.20
2023-01-19T18:22:13.703Z,0.20
2023-01-19T18:24:46.432Z,0.20
2023-01-19T18:27:16.864Z,0.30
2023-01-19T18:29:46.676Z,0.30
2023-01-19T18:32:16.369Z,0.40
2023-01-19T18:34:46.479Z,0.30
2023-01-19T18:37:16.095Z,0.40
2023-01-19T18:39:48.100Z,0.30
2023-01-19T18:42:20.330Z,0.40
2023-01-19T18:44:55.102Z,0.40
2023-01-19T18:47:24.957Z,0.50
2023-01-19T18:49:54.882Z,0.60
2023-01-19T18:52:24.231Z,0.50
2023-01-19T18:54:55.524Z,0.60
2023-01-19T18:57:26.310Z,0.60
2023-01-19T18:59:55.994Z,0.70
2023-01-19T19:02:25.839Z,0.70
2023-01-19T19:04:56.250Z,0.70
2023-01-19T19:07:28.022Z,0.70
2023-01-19T19:09:59.695Z,0.70
2023-01-19T19:12:28.983Z,0.80
2023-01-19T19:14:59.120Z,0.70
2023-01-19T19:17:29.163Z,0.70
2023-01-19T19:19:58.860Z,0.70
2023-01-19T19:22:28.557Z,0.70
2023-01-19T19:24:59.662Z,0.80
2023-01-19T19:27:29.733Z,0.80
2023-01-19T19:29:59.626Z,0.80
2023-01-19T19:32:29.294Z,0.70
2023-01-19T19:34:59.312Z,0.70
2023-01-19T19:37:29.761Z,0.80
2023-01-19T19:40:01.370Z,0.70
2023-01-19T19:42:31.522Z,0.70
2023-01-19T19:45:01.241Z,0.80
2023-01-19T19:47:32.172Z,0.70
2023-01-19T19:50:02.516Z,0.70
2023-01-19T19:52:32.748Z,0.70
2023-01-19T19:55:05.114Z,0.70
2023-01-19T19:57:34.961Z,0.60
2023-01-19T20:00:06.034Z,0.70
2023-01-19T20:02:44.913Z,0.60
2023-01-19T20:05:15.224Z,0.60
2023-01-19T20:07:47.534Z,0.70
2023-01-19T20:10:21.107Z,0.60
2023-01-19T20:12:52.403Z,0.50
2023-01-19T20:15:22.024Z,0.50
2023-01-19T20:17:53.449Z,0.50
2023-01-19T20:20:25.335Z,0.50
2023-01-19T20:22:55.046Z,0.50
2023-01-19T20:25:26.596Z,0.40
2023-01-19T20:27:57.735Z,0.30
2023-01-19T20:30:28.878Z,0.30
2023-01-19T20:32:58.899Z,0.30
2023-01-19T20:35:30.993Z,0.40
2023-01-19T20:38:03.239Z,0.40
2023-01-19T20:40:37.228Z,0.30
2023-01-19T20:43:08.407Z,0.40
2023-01-19T20:45:38.268Z,0.20
2023-01-19T20:48:09.333Z,0.00
2023-01-19T20:50:39.505Z,-0.10
2023-01-19T20:53:08.899Z,-0.10
2023-01-19T20:55:39.812Z,0.00
2023-01-19T20:58:10.265Z,0.10
2023-01-19T21:00:41.217Z,0.20
2023-01-19T21:03:13.983Z,0.20
2023-01-19T21:05:43.937Z,0.20
2023-01-19T21:08:14.460Z,0.30
2023-01-19T21:10:46.045Z,0.40
2023-01-19T21:13:16.267Z,0.40
2023-01-19T21:15:45.582Z,0.40
2023-01-19T21:18:15.764Z,0.30
2023-01-19T21:20:45.819Z,0.20
2023-01-19T21:23:15.727Z,0.10
2023-01-19T21:25:51.764Z,0.20
2023-01-19T21:28:22.928Z,0.20
2023-01-19T21:30:55.521Z,0.30
2023-01-19T21:33:25.643Z,0.30
2023-01-19T21:35:56.963Z,0.30
2023-01-19T21:38:28.308Z,0.30
2023-01-19T21:41:00.730Z,0.20
2023-01-19T21:43:30.720Z,0.30
2023-01-19T21:46:10.451Z,0.30
2023-01-19T21:48:40.001Z,0.30
2023-01-19T21:51:09.744Z,0.30
2023-01-19T21:53:39.672Z,0.40
2023-01-19T21:56:12.685Z,0.40
2023-01-19T21:58:42.236Z,0.40
2023-01-19T22:01:13.962Z,0.50
2023-01-19T22:03:45.886Z,0.40
2023-01-19T22:06:16.763Z,0.00
2023-01-19T22:08:47.756Z,0.10
2023-01-19T22:11:20.930Z,0.20
2023-01-19T22:13:50.308Z,0.30
2023-01-19T22:16:22.355Z,0.20
2023-01-19T22:18:54.407Z,0.20
2023-01-19T22:21:25.479Z,0.20
2023-01-19T22:23:56.346Z,0.00
2023-01-19T22:26:28.023Z,0.10
2023-01-19T22:28:59.234Z,0.20
2023-01-19T22:31:30.690Z,0.20
2023-01-19T22:34:00.571Z,0.20
2023-01-19T22:36:32.092Z,0.20
2023-01-19T22:39:03.498Z,0.10
2023-01-19T22:41:35.889Z,0.10
2023-01-19T22:44:07.464Z,-0.10
2023-01-19T22:46:37.839Z,0.10
2023-01-19T22:49:07.943Z,-0.10
2023-01-19T22:51:37.926Z,0.10
2023-01-19T22:54:08.554Z,0.00
2023-01-19T22:56:41.292Z,-0.10
2023-01-19T22:59:11.085Z,-0.30
2023-01-19T23:01:44.332Z,-0.40
2023-01-19T23:04:15.782Z,-0.30
2023-01-19T23:06:47.446Z,-0.10
2023-01-19T23:09:16.932Z,-0.10
2023-01-19T23:11:50.922Z,-0.20
2023-01-19T23:14:22.179Z,-0.30
2023-01-19T23:16:51.337Z,-0.20
2023-01-19T23:19:20.709Z,-0.20
2023-01-19T23:21:53.006Z,-0.20
2023-01-19T23:24:22.257Z,-0.20
2023-01-19T23:26:53.104Z,-0.30
2023-01-19T23:29:23.664Z,-0.10
2023-01-19T23:31:53.752Z,-0.10
2023-01-19T23:34:23.103Z,-0.10
2023-01-19T23:36:52.305Z,-0.10
2023-01-19T23:39:23.764Z,0.00
2023-01-19T23:41:54.389Z,0.00
2023-01-19T23:44:23.513Z,0.00
2023-01-19T23:46:52.512Z,0.10
2023-01-19T23:49:21.930Z,-0.20
2023-01-19T23:51:51.272Z,-0.20
2023-01-19T23:54:20.384Z,-0.10
2023-01-19T23:56:49.543Z,-0.20
2023-01-19T23:59:20.259Z,0.00
